createdAt,value
2019-05-05T00:00:50.128Z,100386.98
2019-05-05T00:02:08.402Z,100383.17
2019-05-05T00:03:24.997Z,100384.95
2019-05-05T00:04:45.323Z,100381.98
2019-05-05T00:05:50.372Z,100386.77
2019-05-05T00:06:54.994Z,100391.55
2019-05-05T00:07:59.388Z,100387.23
2019-05-05T00:09:05.433Z,100384.62
2019-05-05T00:10:12.364Z,100392.78
2019-05-05T00:11:35.016Z,100393.20
2019-05-05T00:12:52.565Z,100395.80
2019-05-05T00:14:10.337Z,100398.76
2019-05-05T00:15:34.504Z,100399.59
2019-05-05T00:16:40.627Z,100399.58
2019-05-05T00:17:45.138Z,100399.95
2019-05-05T00:18:50.236Z,100405.55
2019-05-05T00:19:55.008Z,100408.14
2019-05-05T00:20:59.787Z,100411.14
2019-05-05T00:22:04.610Z,100403.31
2019-05-05T00:23:09.099Z,100406.73
2019-05-05T00:24:15.190Z,100408.86
2019-05-05T00:25:20.791Z,100408.84
2019-05-05T00:26:25.299Z,100407.08
2019-05-05T00:27:30.043Z,100410.97
2019-05-05T00:28:35.412Z,100416.98
2019-05-05T00:29:40.181Z,100420.35
2019-05-05T00:30:44.910Z,100414.73
2019-05-05T00:31:49.359Z,100417.28
2019-05-05T00:32:54.895Z,100422.05
2019-05-05T00:33:59.546Z,100423.81
2019-05-05T00:35:07.755Z,100426.36
2019-05-05T00:36:14.367Z,100419.45
2019-05-05T00:37:19.385Z,100418.98
2019-05-05T00:38:24.900Z,100421.53
2019-05-05T00:39:29.439Z,100424.58
2019-05-05T00:40:35.242Z,100423.70
2019-05-05T00:41:39.927Z,100421.47
2019-05-05T00:42:45.593Z,100422.80
2019-05-05T00:43:51.615Z,100422.34
2019-05-05T00:44:56.069Z,100424.51
2019-05-05T00:46:04.828Z,100422.75
2019-05-05T00:47:16.960Z,100420.98
2019-05-05T00:48:37.880Z,100423.99
2019-05-05T00:49:48.539Z,100421.81
2019-05-05T00:50:51.829Z,100427.04
2019-05-05T00:51:56.425Z,100422.22
2019-05-05T00:53:00.847Z,100420.45
2019-05-05T00:54:05.286Z,100426.92
2019-05-05T00:55:09.885Z,100425.60
2019-05-05T00:56:14.532Z,100425.12
2019-05-05T00:57:18.947Z,100435.05
2019-05-05T00:58:24.732Z,100431.15
2019-05-05T00:59:30.583Z,100440.21
2019-05-05T01:00:45.937Z,100436.32
2019-05-05T01:01:52.290Z,100436.27
2019-05-05T01:02:56.992Z,100431.95
2019-05-05T01:04:02.004Z,100430.19
2019-05-05T01:05:25.811Z,100429.30
2019-05-05T01:06:32.163Z,100431.89
2019-05-05T01:07:36.606Z,100434.02
2019-05-05T01:08:41.027Z,100434.02
2019-05-05T01:09:46.127Z,100436.59
2019-05-05T01:10:51.549Z,100434.77
2019-05-05T01:11:56.050Z,100435.16
2019-05-05T01:13:00.489Z,100441.23
2019-05-05T01:14:05.223Z,100442.09
2019-05-05T01:15:09.731Z,100448.11
2019-05-05T01:16:15.226Z,100446.40
2019-05-05T01:17:19.694Z,100441.17
2019-05-05T01:18:25.116Z,100443.81
2019-05-05T01:19:29.568Z,100440.34
2019-05-05T01:20:35.008Z,100440.34
2019-05-05T01:21:39.442Z,100440.81
2019-05-05T01:22:44.875Z,100442.98
2019-05-05T01:23:49.688Z,100444.22
2019-05-05T01:24:55.429Z,100443.82
2019-05-05T01:26:01.410Z,100445.59
2019-05-05T01:27:05.916Z,100448.25
2019-05-05T01:28:10.344Z,100450.44
2019-05-05T01:29:14.943Z,100450.05
2019-05-05T01:30:22.153Z,100451.86
2019-05-05T01:31:26.744Z,100447.09
2019-05-05T01:32:38.795Z,100450.11
2019-05-05T01:33:45.827Z,100457.88
2019-05-05T01:34:50.256Z,100461.78
2019-05-05T01:35:55.292Z,100453.58
2019-05-05T01:37:01.318Z,100456.17
2019-05-05T01:38:07.477Z,100462.19
2019-05-05T01:39:30.561Z,100462.67
2019-05-05T01:40:36.631Z,100468.32
2019-05-05T01:41:45.923Z,100469.61
2019-05-05T01:42:50.354Z,100463.19
2019-05-05T01:43:54.849Z,100468.33
2019-05-05T01:44:59.284Z,100466.15
2019-05-05T01:46:05.056Z,100467.08
2019-05-05T01:47:10.006Z,100469.16
2019-05-05T01:48:14.440Z,100472.13
2019-05-05T01:49:19.209Z,100469.48
2019-05-05T01:50:24.876Z,100478.61
2019-05-05T01:51:29.900Z,100475.49
2019-05-05T01:52:34.520Z,100480.67
2019-05-05T01:53:39.034Z,100482.44
2019-05-05T01:54:44.658Z,100485.43
2019-05-05T01:55:49.667Z,100490.12
2019-05-05T01:56:55.586Z,100492.74
2019-05-05T01:58:00.730Z,100492.31
2019-05-05T01:59:05.441Z,100494.04
2019-05-05T02:00:10.278Z,100497.44
2019-05-05T02:01:15.334Z,100497.41
2019-05-05T02:02:19.774Z,100502.53
2019-05-05T02:03:24.491Z,100502.52
2019-05-05T02:04:28.944Z,100505.95
2019-05-05T02:05:34.875Z,100511.59
2019-05-05T02:06:39.901Z,100510.63
2019-05-05T02:07:45.012Z,100511.91
2019-05-05T02:08:49.539Z,100510.48
2019-05-05T02:09:55.359Z,100514.77
2019-05-05T02:11:00.889Z,100513.00
2019-05-05T02:12:05.452Z,100517.69
2019-05-05T02:13:09.844Z,100515.54
2019-05-05T02:14:15.597Z,100518.47
2019-05-05T02:15:20.140Z,100521.87
2019-05-05T02:16:25.405Z,100517.08
2019-05-05T02:17:31.236Z,100521.22
2019-05-05T02:18:35.669Z,100525.11
2019-05-05T02:19:40.115Z,100519.89
2019-05-05T02:20:54.337Z,100519.83
2019-05-05T02:21:58.843Z,100523.22
2019-05-05T02:23:04.688Z,100527.02
2019-05-05T02:24:09.547Z,100525.69
2019-05-05T02:25:14.626Z,100521.34
2019-05-05T02:26:19.134Z,100526.50
2019-05-05T02:27:25.242Z,100526.02
2019-05-05T02:28:31.971Z,100523.86
2019-05-05T02:29:44.644Z,100526.45
2019-05-05T02:30:51.290Z,100527.20
2019-05-05T02:32:15.790Z,100534.50
2019-05-05T02:33:20.871Z,100530.61
2019-05-05T02:34:26.645Z,100536.20
2019-05-05T02:35:31.073Z,100536.17
2019-05-05T02:36:35.828Z,100536.11
2019-05-05T02:37:40.273Z,100536.56
2019-05-05T02:38:46.312Z,100536.91
2019-05-05T02:39:58.939Z,100535.98
2019-05-05T02:40:58.288Z,100537.02
2019-05-05T02:42:05.744Z,100540.56
2019-05-05T02:43:09.660Z,100543.19
2019-05-05T02:44:15.480Z,100545.34
2019-05-05T02:45:28.759Z,100541.38
2019-05-05T02:46:40.674Z,100544.78
2019-05-05T02:47:47.436Z,100547.85
2019-05-05T02:48:55.382Z,100546.13
2019-05-05T02:50:05.269Z,100543.06
2019-05-05T02:51:09.507Z,100543.93
2019-05-05T02:52:15.247Z,100547.81
2019-05-05T02:53:21.170Z,100544.78
2019-05-05T02:54:25.610Z,100550.34
2019-05-05T02:55:32.766Z,100555.03
2019-05-05T02:56:47.762Z,100565.38
2019-05-05T02:57:54.331Z,100565.36
2019-05-05T02:59:01.650Z,100566.23
2019-05-05T03:00:13.475Z,100564.48
2019-05-05T03:01:29.593Z,100572.19
2019-05-05T03:02:35.805Z,100570.43
2019-05-05T03:03:40.664Z,100569.55
2019-05-05T03:04:45.755Z,100577.70
2019-05-05T03:05:50.936Z,100575.06
2019-05-05T03:06:56.705Z,100575.89
2019-05-05T03:08:02.098Z,100577.08
2019-05-05T03:09:07.277Z,100575.41
2019-05-05T03:10:14.101Z,100580.97
2019-05-05T03:11:18.763Z,100578.87
2019-05-05T03:12:25.107Z,100581.45
2019-05-05T03:13:33.710Z,100580.14
2019-05-05T03:14:40.115Z,100584.33
2019-05-05T03:15:54.978Z,100581.23
2019-05-05T03:17:00.227Z,100589.87
2019-05-05T03:18:04.749Z,100584.53
2019-05-05T03:19:10.639Z,100586.77
2019-05-05T03:20:16.131Z,100587.56
2019-05-05T03:21:21.611Z,100591.05
2019-05-05T03:22:27.111Z,100588.88
2019-05-05T03:23:33.438Z,100590.58
2019-05-05T03:24:38.308Z,100585.77
2019-05-05T03:25:44.000Z,100589.68
2019-05-05T03:26:49.555Z,100595.32
2019-05-05T03:27:54.013Z,100599.61
2019-05-05T03:29:00.439Z,100602.17
2019-05-05T03:30:06.210Z,100606.05
2019-05-05T03:31:11.686Z,100605.14
2019-05-05T03:32:16.519Z,100607.73
2019-05-05T03:33:24.828Z,100605.09
2019-05-05T03:34:28.022Z,100607.28
2019-05-05T03:35:34.434Z,100612.84
2019-05-05T03:36:38.652Z,100611.05
2019-05-05T03:37:44.609Z,100613.25
2019-05-05T03:38:51.059Z,100621.02
2019-05-05T03:39:57.399Z,100624.54
2019-05-05T03:41:03.840Z,100621.95
2019-05-05T03:42:10.772Z,100624.05
2019-05-05T03:43:26.557Z,100621.89
2019-05-05T03:44:33.638Z,100623.19
2019-05-05T03:45:44.520Z,100625.83
2019-05-05T03:46:50.059Z,100624.98
2019-05-05T03:47:54.703Z,100626.66
2019-05-05T03:48:59.502Z,100623.25
2019-05-05T03:50:06.694Z,100623.25
2019-05-05T03:51:18.798Z,100628.86
2019-05-05T03:52:17.599Z,100619.78
2019-05-05T03:53:24.586Z,100624.59
2019-05-05T03:54:30.546Z,100622.47
2019-05-05T03:55:35.923Z,100633.25
2019-05-05T03:56:40.808Z,100623.32
2019-05-05T03:57:45.587Z,100628.55
2019-05-05T03:58:50.691Z,100630.75
2019-05-05T03:59:55.486Z,100629.45
2019-05-05T04:01:38.136Z,100632.07
2019-05-05T04:02:44.586Z,100633.03
2019-05-05T04:03:50.356Z,100632.64
2019-05-05T04:04:56.450Z,100638.28
2019-05-05T04:06:05.218Z,100639.25
2019-05-05T04:07:09.669Z,100641.03
2019-05-05T04:08:14.528Z,100642.33
2019-05-05T04:09:19.335Z,100638.88
2019-05-05T04:10:24.486Z,100638.47
2019-05-05T04:11:29.099Z,100640.28
2019-05-05T04:12:34.594Z,100647.66
2019-05-05T04:13:40.093Z,100651.53
2019-05-05T04:14:46.359Z,100653.19
2019-05-05T04:16:13.501Z,100658.52
2019-05-05T04:17:24.384Z,100651.72
2019-05-05T04:18:29.851Z,100660.47
2019-05-05T04:19:43.631Z,100661.40
2019-05-05T04:20:48.489Z,100661.40
2019-05-05T04:21:53.666Z,100660.64
2019-05-05T04:22:58.441Z,100664.30
2019-05-05T04:24:04.074Z,100666.59
2019-05-05T04:25:08.544Z,100664.95
2019-05-05T04:26:14.226Z,100665.03
2019-05-05T04:27:18.821Z,100668.11
2019-05-05T04:28:24.060Z,100668.25
2019-05-05T04:29:28.570Z,100666.15
2019-05-05T04:30:33.853Z,100671.03
2019-05-05T04:31:38.484Z,100665.95
2019-05-05T04:32:43.913Z,100666.04
2019-05-05T04:33:48.997Z,100658.34
2019-05-05T04:34:54.343Z,100669.38
2019-05-05T04:35:58.893Z,100669.84
2019-05-05T04:37:04.208Z,100666.41
2019-05-05T04:38:08.718Z,100668.36
2019-05-05T04:39:14.427Z,100672.10
2019-05-05T04:40:18.996Z,100667.96
2019-05-05T04:41:24.568Z,100671.61
2019-05-05T04:42:29.008Z,100674.66
2019-05-05T04:43:33.902Z,100667.63
2019-05-05T04:44:38.854Z,100680.36
2019-05-05T04:45:43.652Z,100673.47
2019-05-05T04:46:49.866Z,100681.11
2019-05-05T04:47:55.938Z,100671.00
2019-05-05T04:49:05.272Z,100671.28
2019-05-05T04:50:23.897Z,100674.52
2019-05-05T04:51:44.015Z,100676.34
2019-05-05T04:52:36.558Z,100680.70
2019-05-05T04:53:46.316Z,100683.47
2019-05-05T04:54:52.831Z,100683.44
2019-05-05T04:55:57.284Z,100682.00
2019-05-05T04:57:01.752Z,100678.94
2019-05-05T04:58:06.191Z,100682.35
2019-05-05T04:59:11.003Z,100679.27
2019-05-05T05:00:15.880Z,100679.61
2019-05-05T05:01:20.326Z,100678.72
2019-05-05T05:02:35.196Z,100679.70
2019-05-05T05:03:41.274Z,100679.34
2019-05-05T05:04:53.578Z,100681.55
2019-05-05T05:05:59.784Z,100680.77
2019-05-05T05:07:07.678Z,100682.15
2019-05-05T05:08:13.916Z,100680.92
2019-05-05T05:09:18.235Z,100684.34
2019-05-05T05:10:24.074Z,100687.42
2019-05-05T05:11:29.733Z,100684.06
2019-05-05T05:12:35.873Z,100690.97
2019-05-05T05:13:40.617Z,100687.89
2019-05-05T05:14:45.070Z,100692.75
2019-05-05T05:15:49.790Z,100689.80
2019-05-05T05:16:55.012Z,100698.55
2019-05-05T05:18:04.177Z,100693.89
2019-05-05T05:19:08.690Z,100697.91
2019-05-05T05:20:14.274Z,100694.08
2019-05-05T05:21:18.750Z,100689.41
2019-05-05T05:22:24.372Z,100692.00
2019-05-05T05:23:29.756Z,100690.36
2019-05-05T05:24:34.485Z,100684.20
2019-05-05T05:25:38.900Z,100693.44
2019-05-05T05:26:44.184Z,100691.39
2019-05-05T05:27:48.871Z,100689.68
2019-05-05T05:28:53.893Z,100689.38
2019-05-05T05:29:58.441Z,100689.89
2019-05-05T05:31:03.906Z,100686.50
2019-05-05T05:32:08.417Z,100689.38
2019-05-05T05:33:14.869Z,100686.50
2019-05-05T05:34:19.297Z,100686.22
2019-05-05T05:35:24.367Z,100691.52
2019-05-05T05:36:29.112Z,100690.68
2019-05-05T05:37:34.276Z,100688.20
2019-05-05T05:38:38.959Z,100690.34
2019-05-05T05:39:45.029Z,100691.37
2019-05-05T05:40:53.779Z,100693.02
2019-05-05T05:41:58.313Z,100690.92
2019-05-05T05:43:04.834Z,100694.12
2019-05-05T05:44:10.978Z,100695.88
2019-05-05T05:45:23.835Z,100695.97
2019-05-05T05:46:35.637Z,100693.84
2019-05-05T05:47:57.982Z,100692.61
2019-05-05T05:49:19.118Z,100687.50
2019-05-05T05:50:34.125Z,100686.66
2019-05-05T05:51:38.562Z,100685.75
2019-05-05T05:52:43.685Z,100692.80
2019-05-05T05:53:48.316Z,100685.03
2019-05-05T05:54:53.550Z,100693.23
2019-05-05T05:55:58.180Z,100698.45
2019-05-05T05:57:04.334Z,100689.88
2019-05-05T05:58:08.906Z,100697.70
2019-05-05T05:59:14.137Z,100699.91
2019-05-05T06:00:19.019Z,100700.77
2019-05-05T06:01:24.016Z,100704.25
2019-05-05T06:02:28.577Z,100709.51
2019-05-05T06:03:33.915Z,100710.38
2019-05-05T06:04:39.589Z,100706.86
2019-05-05T06:05:44.302Z,100714.30
2019-05-05T06:06:49.056Z,100711.66
2019-05-05T06:07:54.451Z,100713.87
2019-05-05T06:09:00.114Z,100711.69
2019-05-05T06:10:05.595Z,100716.48
2019-05-05T06:11:10.117Z,100724.31
2019-05-05T06:12:14.582Z,100722.13
2019-05-05T06:13:19.038Z,100719.95
2019-05-05T06:14:24.713Z,100723.02
2019-05-05T06:15:29.219Z,100724.76
2019-05-05T06:16:34.233Z,100729.55
2019-05-05T06:17:38.856Z,100729.53
2019-05-05T06:18:43.754Z,100729.13
2019-05-05T06:19:48.206Z,100735.19
2019-05-05T06:20:53.743Z,100729.52
2019-05-05T06:21:58.324Z,100737.34
2019-05-05T06:23:04.110Z,100735.56
2019-05-05T06:24:08.976Z,100734.23
2019-05-05T06:25:16.009Z,100731.16
2019-05-05T06:26:19.968Z,100740.31
2019-05-05T06:27:24.430Z,100735.87
2019-05-05T06:28:28.855Z,100740.63
2019-05-05T06:29:34.512Z,100737.97
2019-05-05T06:30:39.106Z,100740.60
2019-05-05T06:31:44.746Z,100741.01
2019-05-05T06:32:49.364Z,100740.58
2019-05-05T06:33:54.352Z,100744.50
2019-05-05T06:34:58.894Z,100750.17
2019-05-05T06:36:03.753Z,100746.77
2019-05-05T06:37:08.632Z,100744.08
2019-05-05T06:38:13.758Z,100751.03
2019-05-05T06:39:18.202Z,100747.98
2019-05-05T06:40:25.709Z,100754.02
2019-05-05T06:41:40.528Z,100747.55
2019-05-05T06:42:46.619Z,100745.69
2019-05-05T06:44:03.698Z,100752.75
2019-05-05T06:45:23.860Z,100747.59
2019-05-05T06:46:30.922Z,100751.85
2019-05-05T06:47:38.115Z,100744.97
2019-05-05T06:48:43.856Z,100748.87
2019-05-05T06:49:48.421Z,100753.70
2019-05-05T06:50:54.450Z,100752.34
2019-05-05T06:52:00.240Z,100744.81
2019-05-05T06:53:04.735Z,100751.77
2019-05-05T06:54:09.339Z,100751.73
2019-05-05T06:55:14.230Z,100750.03
2019-05-05T06:56:18.643Z,100764.04
2019-05-05T06:57:24.014Z,100764.90
2019-05-05T06:58:28.604Z,100755.41
2019-05-05T06:59:35.014Z,100765.52
2019-05-05T07:00:40.643Z,100763.19
2019-05-05T07:01:50.149Z,100760.20
2019-05-05T07:02:59.455Z,100762.64
2019-05-05T07:04:05.851Z,100755.95
2019-05-05T07:05:10.637Z,100757.22
2019-05-05T07:06:15.067Z,100755.89
2019-05-05T07:07:19.495Z,100748.90
2019-05-05T07:08:24.498Z,100757.46
2019-05-05T07:09:29.081Z,100755.25
2019-05-05T07:10:33.994Z,100757.48
2019-05-05T07:11:38.715Z,100756.97
2019-05-05T07:12:43.995Z,100759.35
2019-05-05T07:13:48.900Z,100755.37
2019-05-05T07:14:54.383Z,100751.64
2019-05-05T07:15:58.821Z,100750.85
2019-05-05T07:17:05.076Z,100752.04
2019-05-05T07:18:09.405Z,100757.23
2019-05-05T07:19:14.686Z,100752.19
2019-05-05T07:20:19.165Z,100752.32
2019-05-05T07:21:23.910Z,100754.13
2019-05-05T07:22:28.366Z,100756.45
2019-05-05T07:23:34.138Z,100759.02
2019-05-05T07:24:38.762Z,100764.16
2019-05-05T07:25:45.926Z,100760.58
2019-05-05T07:26:49.778Z,100762.53
2019-05-05T07:27:54.697Z,100758.07
2019-05-05T07:29:04.450Z,100763.70
2019-05-05T07:30:08.868Z,100760.70
2019-05-05T07:31:14.326Z,100765.78
2019-05-05T07:32:18.880Z,100759.59
2019-05-05T07:33:23.866Z,100760.03
2019-05-05T07:34:29.986Z,100754.92
2019-05-05T07:35:52.480Z,100754.92
2019-05-05T07:36:46.469Z,100757.80
2019-05-05T07:37:50.917Z,100756.78
2019-05-05T07:38:55.342Z,100755.20
2019-05-05T07:40:00.086Z,100755.20
2019-05-05T07:41:04.518Z,100756.78
2019-05-05T07:42:09.216Z,100754.81
2019-05-05T07:43:14.624Z,100753.97
2019-05-05T07:44:26.644Z,100758.13
2019-05-05T07:45:26.288Z,100759.52
2019-05-05T07:46:30.994Z,100755.20
2019-05-05T07:47:35.450Z,100755.20
2019-05-05T07:48:41.261Z,100731.23
2019-05-05T07:49:45.735Z,100750.13
2019-05-05T07:50:59.800Z,100753.25
2019-05-05T07:51:56.390Z,100755.83
2019-05-05T07:53:13.916Z,100751.84
2019-05-05T07:54:07.096Z,100750.40
2019-05-05T07:55:11.717Z,100757.07
2019-05-05T07:56:16.458Z,100752.55
2019-05-05T07:57:20.906Z,100748.90
2019-05-05T07:58:25.649Z,100750.58
2019-05-05T07:59:30.171Z,100745.41
2019-05-05T08:00:34.622Z,100747.81
2019-05-05T08:01:39.429Z,100740.23
2019-05-05T08:02:44.042Z,100752.41
2019-05-05T08:03:49.751Z,100739.54
2019-05-05T08:04:54.564Z,100739.54
2019-05-05T08:05:59.045Z,100759.13
2019-05-05T08:07:04.062Z,100756.34
2019-05-05T08:08:09.924Z,100760.70
2019-05-05T08:09:14.781Z,100771.39
2019-05-05T08:10:19.523Z,100763.21
2019-05-05T08:11:24.019Z,100769.70
2019-05-05T08:12:28.556Z,100767.67
2019-05-05T08:13:33.672Z,100758.75
2019-05-05T08:14:38.089Z,100743.73
2019-05-05T08:15:56.258Z,100756.91
2019-05-05T08:17:09.924Z,100763.40
2019-05-05T08:18:24.180Z,100768.03
2019-05-05T08:19:43.892Z,100766.87
2019-05-05T08:21:04.084Z,100762.92
2019-05-05T08:22:09.252Z,100761.20
2019-05-05T08:23:29.230Z,100773.94
2019-05-05T08:24:24.416Z,100767.18
2019-05-05T08:25:40.172Z,100746.45
2019-05-05T08:26:46.963Z,100746.45
2019-05-05T08:27:53.716Z,100766.17
2019-05-05T08:28:59.957Z,100768.73
2019-05-05T08:30:17.513Z,100771.10
2019-05-05T08:31:24.974Z,100765.67
2019-05-05T08:32:35.690Z,100769.31
2019-05-05T08:33:40.515Z,100770.15
2019-05-05T08:34:56.866Z,100778.48
2019-05-05T08:35:54.135Z,100774.48
2019-05-05T08:37:01.506Z,100771.33
2019-05-05T08:38:06.655Z,100775.94
2019-05-05T08:39:14.299Z,100766.99
2019-05-05T08:40:18.990Z,100769.36
2019-05-05T08:41:24.398Z,100780.38
2019-05-05T08:42:33.990Z,100773.29
2019-05-05T08:43:38.760Z,100776.72
2019-05-05T08:44:44.723Z,100759.05
2019-05-05T08:45:49.829Z,100772.64
2019-05-05T08:46:54.587Z,100774.05
2019-05-05T08:48:04.757Z,100779.23
2019-05-05T08:49:13.605Z,100767.22
2019-05-05T08:50:19.231Z,100770.41
2019-05-05T08:51:30.215Z,100771.03
2019-05-05T08:52:34.657Z,100770.89
2019-05-05T08:53:48.419Z,100771.80
2019-05-05T08:54:54.585Z,100767.67
2019-05-05T08:55:59.044Z,100771.98
2019-05-05T08:57:04.325Z,100771.52
2019-05-05T08:58:10.207Z,100774.14
2019-05-05T08:59:14.639Z,100775.89
2019-05-05T09:00:19.875Z,100769.66
2019-05-05T09:01:24.344Z,100773.25
2019-05-05T09:02:29.045Z,100772.77
2019-05-05T09:03:33.727Z,100772.56
2019-05-05T09:04:38.185Z,100773.77
2019-05-05T09:05:43.771Z,100778.44
2019-05-05T09:06:48.712Z,100777.17
2019-05-05T09:07:54.788Z,100781.25
2019-05-05T09:08:59.559Z,100772.25
2019-05-05T09:10:05.033Z,100784.31
2019-05-05T09:11:09.780Z,100782.81
2019-05-05T09:12:14.308Z,100779.86
2019-05-05T09:13:19.027Z,100783.27
2019-05-05T09:14:24.047Z,100777.96
2019-05-05T09:15:28.790Z,100771.98
2019-05-05T09:16:33.583Z,100776.19
2019-05-05T09:17:38.002Z,100778.58
2019-05-05T09:18:59.209Z,100776.90
2019-05-05T09:20:04.522Z,100777.86
2019-05-05T09:21:09.578Z,100777.53
2019-05-05T09:22:14.144Z,100773.95
2019-05-05T09:23:18.689Z,100774.50
2019-05-05T09:24:25.040Z,100779.06
2019-05-05T09:25:46.966Z,100784.88
2019-05-05T09:26:55.743Z,100786.43
2019-05-05T09:28:07.537Z,100789.02
2019-05-05T09:29:25.981Z,100794.69
2019-05-05T09:30:40.274Z,100794.34
2019-05-05T09:31:46.126Z,100788.01
2019-05-05T09:32:50.778Z,100782.59
2019-05-05T09:33:55.209Z,100784.66
2019-05-05T09:34:59.981Z,100780.39
2019-05-05T09:36:04.821Z,100781.87
2019-05-05T09:37:09.307Z,100777.48
2019-05-05T09:38:14.721Z,100774.86
2019-05-05T09:39:19.548Z,100786.98
2019-05-05T09:40:40.973Z,100781.16
2019-05-05T09:41:44.728Z,100784.50
2019-05-05T09:42:49.108Z,100784.16
2019-05-05T09:43:54.000Z,100784.25
2019-05-05T09:44:58.722Z,100777.01
2019-05-05T09:46:03.944Z,100780.04
2019-05-05T09:47:08.800Z,100784.95
2019-05-05T09:48:14.014Z,100782.34
2019-05-05T09:49:18.624Z,100781.48
2019-05-05T09:50:23.780Z,100784.82
2019-05-05T09:51:28.316Z,100781.94
2019-05-05T09:52:33.800Z,100779.44
2019-05-05T09:53:38.310Z,100777.81
2019-05-05T09:54:43.873Z,100778.78
2019-05-05T09:55:48.724Z,100776.34
2019-05-05T09:56:53.862Z,100779.17
2019-05-05T09:57:58.693Z,100777.83
2019-05-05T09:59:03.811Z,100783.28
2019-05-05T10:00:10.581Z,100791.03
2019-05-05T10:01:15.086Z,100787.38
2019-05-05T10:02:19.529Z,100797.64
2019-05-05T10:03:24.025Z,100793.44
2019-05-05T10:04:29.497Z,100789.05
2019-05-05T10:05:34.324Z,100791.21
2019-05-05T10:06:40.691Z,100798.69
2019-05-05T10:07:45.145Z,100798.64
2019-05-05T10:08:49.862Z,100790.31
2019-05-05T10:09:54.585Z,100796.09
2019-05-05T10:10:59.302Z,100799.33
2019-05-05T10:12:04.813Z,100792.52
2019-05-05T10:13:09.486Z,100801.27
2019-05-05T10:14:14.419Z,100804.24
2019-05-05T10:15:19.009Z,100808.30
2019-05-05T10:16:23.796Z,100807.38
2019-05-05T10:17:28.553Z,100806.32
2019-05-05T10:18:35.511Z,100797.06
2019-05-05T10:19:39.425Z,100812.64
2019-05-05T10:20:44.155Z,100808.88
2019-05-05T10:21:49.568Z,100806.41
2019-05-05T10:22:54.348Z,100810.84
2019-05-05T10:24:00.840Z,100806.67
2019-05-05T10:25:26.546Z,100802.94
2019-05-05T10:26:30.987Z,100800.08
2019-05-05T10:27:44.347Z,100808.00
2019-05-05T10:28:41.744Z,100796.79
2019-05-05T10:29:46.458Z,100797.13
2019-05-05T10:30:51.034Z,100792.91
2019-05-05T10:31:55.490Z,100797.91
2019-05-05T10:32:59.936Z,100793.62
2019-05-05T10:34:06.122Z,100797.92
2019-05-05T10:35:11.484Z,100794.89
2019-05-05T10:36:16.833Z,100790.53
2019-05-05T10:37:23.414Z,100792.38
2019-05-05T10:38:27.436Z,100789.63
2019-05-05T10:39:37.424Z,100789.94
2019-05-05T10:40:44.673Z,100793.41
2019-05-05T10:41:49.540Z,100793.31
2019-05-05T10:42:54.279Z,100793.61
2019-05-05T10:43:58.740Z,100797.64
2019-05-05T10:45:04.435Z,100805.70
2019-05-05T10:46:09.879Z,100804.86
2019-05-05T10:47:14.579Z,100802.00
2019-05-05T10:48:19.335Z,100801.36
2019-05-05T10:49:24.387Z,100808.08
2019-05-05T10:50:28.969Z,100798.78
2019-05-05T10:51:34.565Z,100800.44
2019-05-05T10:52:39.128Z,100802.38
2019-05-05T10:53:43.941Z,100806.44
2019-05-05T10:54:48.451Z,100804.55
2019-05-05T10:55:53.932Z,100812.19
2019-05-05T10:56:59.877Z,100807.46
2019-05-05T10:58:04.388Z,100805.18
2019-05-05T10:59:08.865Z,100809.92
2019-05-05T11:00:16.024Z,100808.47
2019-05-05T11:01:20.465Z,100804.39
2019-05-05T11:02:24.910Z,100799.52
2019-05-05T11:03:29.420Z,100808.28
2019-05-05T11:04:33.885Z,100805.88
2019-05-05T11:05:38.389Z,100802.10
2019-05-05T11:06:44.094Z,100803.84
2019-05-05T11:07:49.216Z,100804.59
2019-05-05T11:08:54.109Z,100804.67
2019-05-05T11:09:58.839Z,100796.75
2019-05-05T11:11:04.266Z,100805.16
2019-05-05T11:12:10.056Z,100804.94
2019-05-05T11:13:14.564Z,100799.67
2019-05-05T11:14:19.024Z,100791.50
2019-05-05T11:15:24.669Z,100797.34
2019-05-05T11:16:30.577Z,100794.27
2019-05-05T11:17:35.033Z,100794.91
2019-05-05T11:18:39.479Z,100794.52
2019-05-05T11:19:44.182Z,100786.95
2019-05-05T11:20:48.787Z,100782.17
2019-05-05T11:21:54.072Z,100799.37
2019-05-05T11:22:58.835Z,100800.33
2019-05-05T11:24:04.245Z,100800.47
2019-05-05T11:25:08.746Z,100794.58
2019-05-05T11:26:14.336Z,100798.22
2019-05-05T11:27:19.188Z,100795.45
2019-05-05T11:28:23.626Z,100798.16
2019-05-05T11:29:28.058Z,100795.28
2019-05-05T11:30:37.947Z,100797.66
2019-05-05T11:31:42.386Z,100797.67
2019-05-05T11:33:04.189Z,100799.15
2019-05-05T11:34:10.275Z,100797.07
2019-05-05T11:35:14.745Z,100793.49
2019-05-05T11:36:24.841Z,100792.49
2019-05-05T11:37:29.444Z,100794.42
2019-05-05T11:38:34.034Z,100790.75
2019-05-05T11:39:39.458Z,100792.63
2019-05-05T11:40:44.081Z,100790.23
2019-05-05T11:41:48.852Z,100784.19
2019-05-05T11:42:54.138Z,100785.84
2019-05-05T11:43:58.620Z,100785.17
2019-05-05T11:45:04.275Z,100779.44
2019-05-05T11:46:08.910Z,100785.74
2019-05-05T11:47:13.980Z,100786.59
2019-05-05T11:48:18.801Z,100784.20
2019-05-05T11:49:24.519Z,100794.45
2019-05-05T11:50:29.132Z,100797.45
2019-05-05T11:51:34.202Z,100789.09
2019-05-05T11:52:38.792Z,100790.06
2019-05-05T11:53:44.741Z,100789.34
2019-05-05T11:54:49.417Z,100797.11
2019-05-05T11:55:54.964Z,100802.14
2019-05-05T11:56:59.890Z,100799.67
2019-05-05T11:58:04.502Z,100795.14
2019-05-05T11:59:09.020Z,100801.28
2019-05-05T12:00:14.212Z,100799.42
2019-05-05T12:01:19.059Z,100806.52
2019-05-05T12:02:24.405Z,100809.42
2019-05-05T12:03:29.410Z,100813.97
2019-05-05T12:04:35.374Z,100812.45
2019-05-05T12:05:39.961Z,100819.41
2019-05-05T12:06:44.759Z,100814.70
2019-05-05T12:07:49.492Z,100817.17
2019-05-05T12:08:54.275Z,100815.58
2019-05-05T12:09:58.846Z,100820.31
2019-05-05T12:11:05.518Z,100820.98
2019-05-05T12:12:10.142Z,100816.34
2019-05-05T12:13:15.204Z,100817.92
2019-05-05T12:14:24.426Z,100812.30
2019-05-05T12:15:28.524Z,100815.75
2019-05-05T12:16:34.697Z,100812.59
2019-05-05T12:17:39.433Z,100818.93
2019-05-05T12:18:44.862Z,100815.70
2019-05-05T12:19:49.606Z,100815.16
2019-05-05T12:20:54.484Z,100813.35
2019-05-05T12:21:59.289Z,100814.54
2019-05-05T12:23:05.769Z,100817.80
2019-05-05T12:24:14.198Z,100815.61
2019-05-05T12:25:36.042Z,100818.84
2019-05-05T12:26:54.378Z,100814.64
2019-05-05T12:28:00.558Z,100815.31
2019-05-05T12:29:06.678Z,100810.94
2019-05-05T12:30:11.394Z,100815.52
2019-05-05T12:31:26.683Z,100814.00
2019-05-05T12:32:31.225Z,100819.14
2019-05-05T12:33:35.651Z,100816.14
2019-05-05T12:34:41.198Z,100807.83
2019-05-05T12:35:45.957Z,100817.18
2019-05-05T12:36:50.773Z,100817.95
2019-05-05T12:37:55.316Z,100813.86